createdAt,value
2022-08-17T00:01:55.719Z,38.95
2022-08-17T00:04:22.409Z,37.47
2022-08-17T00:06:49.934Z,38.60
2022-08-17T00:09:18.736Z,36.22
2022-08-17T00:12:41.879Z,36.05
2022-08-17T00:14:34.306Z,38.20
2022-08-17T00:17:00.458Z,37.53
2022-08-17T00:19:26.880Z,37.22
2022-08-17T00:22:33.213Z,35.78
2022-08-17T00:24:43.091Z,35.42
2022-08-17T00:27:09.165Z,34.20
2022-08-17T00:29:35.509Z,35.83
2022-08-17T00:33:16.005Z,35.88
2022-08-17T00:34:56.924Z,33.88
2022-08-17T00:37:23.033Z,33.03
2022-08-17T00:39:49.317Z,32.75
2022-08-17T00:42:17.749Z,32.13
2022-08-17T00:44:45.924Z,33.28
2022-08-17T00:47:12.276Z,31.70
2022-08-17T00:49:38.396Z,31.95
2022-08-17T00:52:12.199Z,34.65
2022-08-17T00:54:42.808Z,30.40
2022-08-17T00:57:14.020Z,29.52
2022-08-17T00:59:55.967Z,28.23
2022-08-17T01:02:41.209Z,29.50
2022-08-17T01:05:14.084Z,28.85
2022-08-17T01:07:42.296Z,27.48
2022-08-17T01:10:58.228Z,28.77
2022-08-17T01:12:57.421Z,29.55
2022-08-17T01:15:26.232Z,29.58
2022-08-17T01:17:52.333Z,28.73
2022-08-17T01:20:18.749Z,27.02
2022-08-17T01:22:44.912Z,28.50
2022-08-17T01:25:11.943Z,28.00
2022-08-17T01:27:38.864Z,28.67
2022-08-17T01:30:57.252Z,28.38
2022-08-17T01:32:57.609Z,27.63
2022-08-17T01:35:23.838Z,26.50
2022-08-17T01:37:49.979Z,27.50
2022-08-17T01:40:48.733Z,26.08
2022-08-17T01:43:34.137Z,23.80
2022-08-17T01:46:02.619Z,22.80
2022-08-17T01:48:35.645Z,22.17
2022-08-17T01:51:02.534Z,22.92
2022-08-17T01:53:34.248Z,21.17
2022-08-17T01:56:06.081Z,21.67
2022-08-17T01:58:33.922Z,21.63
2022-08-17T02:01:01.759Z,20.25
2022-08-17T02:03:29.174Z,19.95
2022-08-17T02:05:56.280Z,20.48
2022-08-17T02:08:39.340Z,20.10
2022-08-17T02:11:14.189Z,20.63
2022-08-17T02:13:40.957Z,21.33
2022-08-17T02:16:07.570Z,24.48
2022-08-17T02:18:33.838Z,24.75
2022-08-17T02:21:00.154Z,25.95
2022-08-17T02:23:29.899Z,26.25
2022-08-17T02:25:58.428Z,27.02
2022-08-17T02:28:24.895Z,26.20
2022-08-17T02:31:01.746Z,27.83
2022-08-17T02:33:41.941Z,28.55
2022-08-17T02:36:11.938Z,27.67
2022-08-17T02:38:40.048Z,28.10
2022-08-17T02:41:09.001Z,26.58
2022-08-17T02:43:35.187Z,28.23
2022-08-17T02:46:04.421Z,26.23
2022-08-17T02:48:32.119Z,27.88
2022-08-17T02:50:59.608Z,27.95
2022-08-17T02:53:35.512Z,28.25
2022-08-17T02:56:02.963Z,27.95
2022-08-17T02:58:34.460Z,29.08
2022-08-17T03:01:06.933Z,28.13
2022-08-17T03:03:34.007Z,27.63
2022-08-17T03:06:02.023Z,28.05
2022-08-17T03:08:29.006Z,26.88
2022-08-17T03:10:55.880Z,27.63
2022-08-17T03:13:21.956Z,26.88
2022-08-17T03:15:48.619Z,26.00
2022-08-17T03:18:24.486Z,26.40
2022-08-17T03:20:58.994Z,26.42
2022-08-17T03:23:27.442Z,23.65
2022-08-17T03:25:54.601Z,25.25
2022-08-17T03:28:22.449Z,24.98
2022-08-17T03:30:50.379Z,25.20
2022-08-17T03:33:17.375Z,24.98
2022-08-17T03:35:44.170Z,26.00
2022-08-17T03:38:11.956Z,24.75
2022-08-17T03:40:57.337Z,24.45
2022-08-17T03:43:29.519Z,28.05
2022-08-17T03:46:28.864Z,26.53
2022-08-17T03:49:20.875Z,22.67
2022-08-17T03:52:05.811Z,22.00
2022-08-17T03:54:50.711Z,22.38
2022-08-17T03:57:18.425Z,22.75
2022-08-17T03:59:45.140Z,22.20
2022-08-17T04:02:17.915Z,24.08
2022-08-17T04:04:44.264Z,22.02
2022-08-17T04:07:10.636Z,23.23
2022-08-17T04:09:37.643Z,23.85
2022-08-17T04:12:04.535Z,25.67
2022-08-17T04:14:35.568Z,24.55
2022-08-17T04:17:05.851Z,26.48
2022-08-17T04:19:32.313Z,26.10
2022-08-17T04:21:59.905Z,26.35
2022-08-17T04:24:26.816Z,26.33
2022-08-17T04:26:54.698Z,27.42
2022-08-17T04:29:21.098Z,27.55
2022-08-17T04:31:47.655Z,28.33
2022-08-17T04:34:13.879Z,27.38
2022-08-17T04:36:40.035Z,28.27
2022-08-17T04:39:16.367Z,30.55
2022-08-17T04:42:00.938Z,32.60
2022-08-17T04:44:37.196Z,29.08
2022-08-17T04:47:04.816Z,29.50
2022-08-17T04:49:31.891Z,29.42
2022-08-17T04:52:04.161Z,28.50
2022-08-17T04:54:30.771Z,29.73
2022-08-17T04:56:56.917Z,28.75
2022-08-17T04:59:23.095Z,28.25
2022-08-17T05:01:51.370Z,28.95
2022-08-17T05:04:34.137Z,28.42
2022-08-17T05:07:01.677Z,26.27
2022-08-17T05:09:28.348Z,27.90
2022-08-17T05:11:56.151Z,20.92
2022-08-17T05:14:22.834Z,16.52
2022-08-17T05:17:00.987Z,16.63
2022-08-17T05:19:27.445Z,13.32
2022-08-17T05:21:54.119Z,12.10
2022-08-17T05:24:20.299Z,10.63
2022-08-17T05:27:06.632Z,9.68
2022-08-17T05:29:35.265Z,8.77
2022-08-17T05:32:47.896Z,8.73
2022-08-17T05:34:59.956Z,8.23
2022-08-17T05:37:26.132Z,8.25
2022-08-17T05:39:53.529Z,7.57
2022-08-17T05:42:19.819Z,7.82
2022-08-17T05:44:45.987Z,7.47
2022-08-17T05:47:12.230Z,7.05
2022-08-17T05:49:39.022Z,6.80
2022-08-17T05:52:11.284Z,7.07
2022-08-17T05:55:03.826Z,6.50
2022-08-17T05:57:43.366Z,6.85
2022-08-17T06:01:01.833Z,6.22
2022-08-17T06:03:48.840Z,6.22
2022-08-17T06:06:40.904Z,7.13
2022-08-17T06:09:37.186Z,7.07
2022-08-17T06:12:28.706Z,8.15
2022-08-17T06:15:07.019Z,8.57
2022-08-17T06:17:34.410Z,6.95
2022-08-17T06:20:10.155Z,7.32
2022-08-17T06:22:49.131Z,7.28
2022-08-17T06:25:22.133Z,6.47
2022-08-17T06:27:55.127Z,7.15
2022-08-17T06:30:25.671Z,6.05
2022-08-17T06:32:54.549Z,6.95
2022-08-17T06:35:49.265Z,6.65
2022-08-17T06:38:38.059Z,7.10
2022-08-17T06:41:42.851Z,7.25
2022-08-17T06:44:43.356Z,7.65
2022-08-17T06:47:31.026Z,7.55
2022-08-17T06:50:16.281Z,7.60
2022-08-17T06:53:02.591Z,7.30
2022-08-17T06:55:44.718Z,7.28
2022-08-17T06:58:16.254Z,7.90
2022-08-17T07:00:46.958Z,8.18
2022-08-17T07:03:38.317Z,7.75
2022-08-17T07:06:27.460Z,8.00
2022-08-17T07:09:02.009Z,8.52
2022-08-17T07:11:42.851Z,8.57
2022-08-17T07:14:43.149Z,8.95
2022-08-17T07:17:17.916Z,9.15
2022-08-17T07:19:47.952Z,9.73
2022-08-17T07:22:55.217Z,9.52
2022-08-17T07:25:23.357Z,10.23
2022-08-17T07:27:55.430Z,11.63
2022-08-17T07:30:25.477Z,11.63
2022-08-17T07:33:02.082Z,11.70
2022-08-17T07:35:31.366Z,11.55
2022-08-17T07:38:24.942Z,12.20
2022-08-17T07:40:56.996Z,12.90
2022-08-17T07:43:49.211Z,12.02
2022-08-17T07:46:53.678Z,13.20
2022-08-17T07:49:44.259Z,11.25
2022-08-17T07:52:50.770Z,10.93
2022-08-17T07:55:28.980Z,11.45
2022-08-17T07:57:57.562Z,10.52
2022-08-17T08:00:32.031Z,10.80
2022-08-17T08:03:14.554Z,10.60
2022-08-17T08:05:53.732Z,11.15
2022-08-17T08:08:27.801Z,11.95
2022-08-17T08:11:28.496Z,11.75
2022-08-17T08:13:54.620Z,12.93
2022-08-17T08:16:28.512Z,12.68
2022-08-17T08:18:58.430Z,13.50
2022-08-17T08:21:36.346Z,14.20
2022-08-17T08:24:34.035Z,14.73
2022-08-17T08:27:18.905Z,14.15
2022-08-17T08:30:00.238Z,14.40
2022-08-17T08:35:47.860Z,13.07
2022-08-17T08:38:31.865Z,10.75
2022-08-17T08:41:19.647Z,9.63
2022-08-17T08:44:03.639Z,7.85
2022-08-17T08:47:02.196Z,7.88
2022-08-17T08:50:01.427Z,7.70
2022-08-17T08:52:41.156Z,7.75
2022-08-17T08:55:13.557Z,8.18
2022-08-17T08:57:55.431Z,7.78
2022-08-17T09:00:24.405Z,10.10
2022-08-17T09:03:12.515Z,7.57
2022-08-17T09:05:59.649Z,7.43
2022-08-17T09:08:46.847Z,7.30
2022-08-17T09:11:18.887Z,6.95
2022-08-17T09:14:01.337Z,7.32
2022-08-17T09:16:37.118Z,7.28
2022-08-17T09:19:10.638Z,7.40
2022-08-17T09:21:55.054Z,6.60
2022-08-17T09:24:39.358Z,6.55
2022-08-17T09:27:21.060Z,5.82
2022-08-17T09:29:58.174Z,6.20
2022-08-17T09:32:43.306Z,6.55
2022-08-17T09:35:09.840Z,7.03
2022-08-17T09:37:54.052Z,6.28
2022-08-17T09:40:31.859Z,6.43
2022-08-17T09:43:10.709Z,6.90
2022-08-17T09:45:50.027Z,6.15
2022-08-17T09:48:47.645Z,6.32
2022-08-17T09:51:22.231Z,6.50
2022-08-17T09:53:49.813Z,6.07
2022-08-17T09:56:36.925Z,7.47
2022-08-17T09:59:13.504Z,8.10
2022-08-17T10:01:49.910Z,9.35
2022-08-17T10:04:29.509Z,8.02
2022-08-17T10:07:20.718Z,8.98
2022-08-17T10:12:47.069Z,9.13
2022-08-17T10:16:00.257Z,9.60
2022-08-17T10:18:46.419Z,9.80
2022-08-17T10:21:33.897Z,9.52
2022-08-17T10:24:35.009Z,8.75
2022-08-17T10:27:06.888Z,9.73
2022-08-17T10:29:53.330Z,9.15
2022-08-17T10:32:48.508Z,9.95
2022-08-17T10:35:28.653Z,9.25
2022-08-17T10:38:28.588Z,9.63
2022-08-17T10:41:15.588Z,10.05
2022-08-17T10:44:39.054Z,9.35
2022-08-17T10:47:03.125Z,9.48
2022-08-17T10:49:46.819Z,10.57
2022-08-17T10:52:19.138Z,9.07
2022-08-17T10:54:58.440Z,9.57
2022-08-17T10:57:31.538Z,8.90
2022-08-17T11:00:14.221Z,8.50
2022-08-17T11:02:48.488Z,8.77
2022-08-17T11:05:41.531Z,8.85
2022-08-17T11:08:21.795Z,9.45
2022-08-17T11:10:55.360Z,9.13
2022-08-17T11:13:46.921Z,9.63
2022-08-17T11:16:32.026Z,9.77
2022-08-17T11:19:25.980Z,8.80
2022-08-17T11:22:16.469Z,9.63
2022-08-17T11:24:47.182Z,9.57
2022-08-17T11:27:13.260Z,10.20
2022-08-17T11:29:53.674Z,9.85
2022-08-17T11:32:48.721Z,9.23
2022-08-17T11:35:29.583Z,10.07
2022-08-17T11:38:14.044Z,9.90
2022-08-17T11:41:23.749Z,10.75
2022-08-17T11:44:21.000Z,9.77
2022-08-17T11:48:16.419Z,10.75
2022-08-17T11:51:34.160Z,11.43
2022-08-17T11:54:31.832Z,12.23
2022-08-17T11:56:59.813Z,11.80
2022-08-17T11:59:32.148Z,13.60
2022-08-17T12:02:00.001Z,14.65
2022-08-17T12:04:32.642Z,14.00
2022-08-17T12:07:09.922Z,15.85
2022-08-17T12:09:41.253Z,16.63
2022-08-17T12:12:18.680Z,15.60
2022-08-17T12:15:08.840Z,16.75
2022-08-17T12:17:40.938Z,17.50
2022-08-17T12:20:18.794Z,17.50
2022-08-17T12:23:00.227Z,18.38
2022-08-17T12:25:43.662Z,17.88
2022-08-17T12:28:30.315Z,19.33
2022-08-17T12:31:03.899Z,19.40
2022-08-17T12:33:30.314Z,19.45
2022-08-17T12:36:14.548Z,20.27
2022-08-17T12:38:50.316Z,19.52
2022-08-17T12:41:29.894Z,20.70
2022-08-17T12:44:12.733Z,20.05
2022-08-17T12:46:53.955Z,21.90
2022-08-17T12:51:50.816Z,21.42
2022-08-17T12:54:46.534Z,21.88
2022-08-17T12:57:16.105Z,20.83
2022-08-17T12:59:48.510Z,22.33
2022-08-17T13:02:47.644Z,21.48
2022-08-17T13:05:23.645Z,22.95
2022-08-17T13:07:50.209Z,22.48
2022-08-17T13:10:21.893Z,23.13
2022-08-17T13:12:50.286Z,21.65
2022-08-17T13:15:48.148Z,21.90
2022-08-17T13:18:39.243Z,23.73
2022-08-17T13:21:26.046Z,22.83
2022-08-17T13:24:04.052Z,24.73
2022-08-17T13:26:36.154Z,19.95
2022-08-17T13:29:28.711Z,19.40
2022-08-17T13:32:14.314Z,17.33
2022-08-17T13:35:12.994Z,17.95
2022-08-17T13:37:38.592Z,18.73
2022-08-17T13:40:09.831Z,16.65
2022-08-17T13:42:51.922Z,17.55
2022-08-17T13:45:36.646Z,17.52
2022-08-17T13:48:13.799Z,17.05
2022-08-17T13:51:03.989Z,16.83
2022-08-17T13:53:48.888Z,17.30
2022-08-17T13:56:38.386Z,16.45
2022-08-17T13:59:36.390Z,18.15
2022-08-17T14:02:12.482Z,19.88
2022-08-17T14:04:40.701Z,18.15
2022-08-17T14:07:13.481Z,19.15
2022-08-17T14:09:47.622Z,17.88
2022-08-17T14:12:17.319Z,17.90
2022-08-17T14:14:44.281Z,17.85
2022-08-17T14:17:11.396Z,17.20
2022-08-17T14:19:39.062Z,18.25
2022-08-17T14:22:10.898Z,18.45
2022-08-17T14:24:44.149Z,18.70
2022-08-17T14:27:11.533Z,18.15
2022-08-17T14:29:40.361Z,17.73
2022-08-17T14:32:17.215Z,17.73
2022-08-17T14:34:44.562Z,18.13
2022-08-17T14:37:11.579Z,17.58
2022-08-17T14:39:38.697Z,17.63
2022-08-17T14:42:05.101Z,18.13
2022-08-17T14:44:34.223Z,18.42
2022-08-17T14:47:00.327Z,17.73
2022-08-17T14:49:27.364Z,17.48
2022-08-17T14:51:53.511Z,18.55
2022-08-17T14:54:32.719Z,18.05
2022-08-17T14:57:11.553Z,16.85
2022-08-17T14:59:55.953Z,17.83
2022-08-17T15:02:29.840Z,17.60
2022-08-17T15:05:03.961Z,17.50
2022-08-17T15:07:30.867Z,18.35
2022-08-17T15:10:00.461Z,17.60
2022-08-17T15:12:32.312Z,17.55
2022-08-17T15:14:59.921Z,18.65
2022-08-17T15:17:26.156Z,17.10
2022-08-17T15:20:15.016Z,17.13
2022-08-17T15:22:43.375Z,16.60
2022-08-17T15:25:11.474Z,15.73
2022-08-17T15:27:37.969Z,16.58
2022-08-17T15:30:07.135Z,17.00
2022-08-17T15:32:35.693Z,16.35
2022-08-17T15:35:06.008Z,15.90
2022-08-17T15:37:32.693Z,16.33
2022-08-17T15:40:01.617Z,15.48
2022-08-17T15:42:28.616Z,16.40
2022-08-17T15:44:54.777Z,16.17
2022-08-17T15:47:21.893Z,16.48
2022-08-17T15:49:48.232Z,16.40
2022-08-17T15:52:24.241Z,15.63
2022-08-17T15:54:55.905Z,16.77
2022-08-17T15:57:23.874Z,16.15
2022-08-17T15:59:53.962Z,16.05
2022-08-17T16:03:46.393Z,16.25
2022-08-17T16:05:21.466Z,16.33
2022-08-17T16:07:50.432Z,15.60
2022-08-17T16:10:19.210Z,16.50
2022-08-17T16:12:48.090Z,18.90
2022-08-17T16:15:15.547Z,17.63
2022-08-17T16:17:42.219Z,16.48
2022-08-17T16:20:19.533Z,17.00
2022-08-17T16:22:48.359Z,17.02
2022-08-17T16:25:22.881Z,16.73
2022-08-17T16:28:09.527Z,17.60
2022-08-17T16:30:36.603Z,17.75
2022-08-17T16:33:03.217Z,16.58
2022-08-17T16:35:29.440Z,15.93
2022-08-17T16:37:59.148Z,17.38
2022-08-17T16:40:28.010Z,15.75
2022-08-17T16:42:54.870Z,15.13
2022-08-17T16:45:35.600Z,15.27
2022-08-17T16:48:02.022Z,15.88
2022-08-17T16:50:28.287Z,16.67
2022-08-17T16:53:09.593Z,18.67
2022-08-17T16:58:08.182Z,17.38
2022-08-17T17:00:35.785Z,17.35
2022-08-17T17:03:19.940Z,18.50
2022-08-17T17:06:03.626Z,19.40
2022-08-17T17:08:59.722Z,20.08
2022-08-17T17:11:34.608Z,22.38
2022-08-17T17:14:06.027Z,21.90
2022-08-17T17:17:00.995Z,23.83
2022-08-17T17:19:40.607Z,24.75
2022-08-17T17:22:23.348Z,22.00
2022-08-17T17:25:17.786Z,23.87
2022-08-17T17:27:53.865Z,23.50
2022-08-17T17:30:26.468Z,24.48
2022-08-17T17:33:04.427Z,24.02
2022-08-17T17:35:40.193Z,24.65
2022-08-17T17:38:15.324Z,24.45
2022-08-17T17:40:49.735Z,25.90
2022-08-17T17:43:38.318Z,28.90
2022-08-17T17:46:37.222Z,26.27
2022-08-17T17:49:05.385Z,27.58
2022-08-17T17:52:09.555Z,27.77
2022-08-17T17:54:52.399Z,28.35
2022-08-17T17:57:30.996Z,29.05
2022-08-17T18:00:14.438Z,30.05
2022-08-17T18:03:00.706Z,43.35
2022-08-17T18:05:26.943Z,93.38
2022-08-17T18:08:18.452Z,33.00
2022-08-17T18:10:56.136Z,31.58
2022-08-17T18:13:52.788Z,31.50
2022-08-17T18:16:20.429Z,31.30
2022-08-17T18:18:47.979Z,34.55
2022-08-17T18:21:20.817Z,32.95
2022-08-17T18:23:58.969Z,34.70
2022-08-17T18:26:52.925Z,32.42
2022-08-17T18:29:33.729Z,32.63
2022-08-17T18:32:35.504Z,32.60
2022-08-17T18:35:27.088Z,32.70
2022-08-17T18:38:15.557Z,31.33
2022-08-17T18:40:44.180Z,34.47
2022-08-17T18:43:44.468Z,34.63
2022-08-17T18:46:28.869Z,34.58
2022-08-17T18:49:02.463Z,34.28
2022-08-17T18:51:40.921Z,32.88
2022-08-17T18:54:21.355Z,30.70
2022-08-17T18:56:56.538Z,29.50
2022-08-17T18:59:34.452Z,30.30
2022-08-17T19:02:19.765Z,30.30
2022-08-17T19:05:07.120Z,29.20
2022-08-17T19:07:45.599Z,30.48
2022-08-17T19:10:46.901Z,31.42
2022-08-17T19:13:23.953Z,28.73
2022-08-17T19:16:14.612Z,29.98
2022-08-17T19:19:13.704Z,28.75
2022-08-17T19:21:47.498Z,27.92
2022-08-17T19:24:22.271Z,28.38
2022-08-17T19:26:59.181Z,28.52
2022-08-17T19:29:53.264Z,28.38
2022-08-17T19:32:25.667Z,28.13
2022-08-17T19:34:52.266Z,27.25
2022-08-17T19:37:55.834Z,27.95
2022-08-17T19:40:52.711Z,27.73
2022-08-17T19:43:53.277Z,27.65
2022-08-17T19:46:43.077Z,30.15
2022-08-17T19:49:53.640Z,30.23
2022-08-17T19:52:40.061Z,32.08
2022-08-17T19:55:06.757Z,30.48
2022-08-17T19:57:55.317Z,32.10
2022-08-17T20:00:23.355Z,32.50
2022-08-17T20:03:12.442Z,33.03
2022-08-17T20:06:11.901Z,34.33
2022-08-17T20:08:46.734Z,35.25
2022-08-17T20:11:24.086Z,32.08
2022-08-17T20:14:36.663Z,32.92
2022-08-17T20:17:04.431Z,34.33
2022-08-17T20:19:51.667Z,30.63
2022-08-17T20:22:22.245Z,30.65
2022-08-17T20:25:01.866Z,30.92
2022-08-17T20:27:32.855Z,32.60
2022-08-17T20:30:11.247Z,33.78
2022-08-17T20:32:52.671Z,30.52
2022-08-17T20:38:01.268Z,29.42
2022-08-17T20:40:34.643Z,28.20
2022-08-17T20:43:36.683Z,30.42
2022-08-17T20:46:31.732Z,27.05
2022-08-17T20:49:14.681Z,25.48
2022-08-17T20:52:01.343Z,25.50
2022-08-17T20:54:28.525Z,23.95
2022-08-17T20:56:57.713Z,25.52
2022-08-17T20:59:27.955Z,25.70
2022-08-17T21:02:12.445Z,26.48
2022-08-17T21:04:53.817Z,26.45
2022-08-17T21:07:42.639Z,27.25
2022-08-17T21:10:25.708Z,24.92
2022-08-17T21:12:57.648Z,25.70
2022-08-17T21:15:42.990Z,23.92
2022-08-17T21:18:27.890Z,22.83
2022-08-17T21:21:17.752Z,23.10
2022-08-17T21:23:46.890Z,23.65
2022-08-17T21:26:20.703Z,22.90
2022-08-17T21:29:30.101Z,21.25
2022-08-17T21:32:02.802Z,21.17
2022-08-17T21:34:45.535Z,20.25
2022-08-17T21:37:29.114Z,18.98
2022-08-17T21:40:10.317Z,18.30
2022-08-17T21:42:48.410Z,18.42
2022-08-17T21:45:31.368Z,17.33
2022-08-17T21:48:20.251Z,17.92
2022-08-17T21:50:57.050Z,17.48
2022-08-17T21:53:34.043Z,16.58
2022-08-17T21:56:04.410Z,17.33
2022-08-17T21:58:38.414Z,17.07
2022-08-17T22:01:22.801Z,17.27
2022-08-17T22:04:02.664Z,16.48
2022-08-17T22:06:34.724Z,17.65
2022-08-17T22:09:09.663Z,16.65
2022-08-17T22:11:51.816Z,16.05
2022-08-17T22:14:51.708Z,17.27
2022-08-17T22:20:14.320Z,16.33
2022-08-17T22:23:07.975Z,18.80
2022-08-17T22:25:37.481Z,17.73
2022-08-17T22:28:09.865Z,19.73
2022-08-17T22:30:59.622Z,18.25
2022-08-17T22:34:07.321Z,17.08
2022-08-17T22:36:41.101Z,16.90
2022-08-17T22:39:09.916Z,18.80
2022-08-17T22:41:47.662Z,17.05
2022-08-17T22:44:23.424Z,18.10
2022-08-17T22:47:00.229Z,18.00
2022-08-17T22:49:35.873Z,17.88
2022-08-17T22:52:20.461Z,17.27
2022-08-17T22:55:09.107Z,17.83
2022-08-17T22:57:54.800Z,19.00
2022-08-17T23:00:41.316Z,18.90
2022-08-17T23:03:13.351Z,16.73
2022-08-17T23:05:44.377Z,18.50
2022-08-17T23:08:12.826Z,18.23
2022-08-17T23:10:41.185Z,19.67
2022-08-17T23:13:11.121Z,18.88
2022-08-17T23:15:40.117Z,18.05
2022-08-17T23:18:07.533Z,18.98
2022-08-17T23:20:36.537Z,18.70
2022-08-17T23:23:06.114Z,20.25
2022-08-17T23:25:35.349Z,21.50
2022-08-17T23:28:04.152Z,21.38
2022-08-17T23:30:34.758Z,21.65
2022-08-17T23:33:04.470Z,21.13
2022-08-17T23:35:39.575Z,19.98
2022-08-17T23:38:08.692Z,20.30
2022-08-17T23:40:35.100Z,21.42
2022-08-17T23:43:05.892Z,20.38
2022-08-17T23:45:43.800Z,21.17
2022-08-17T23:48:09.972Z,22.42
2022-08-17T23:50:38.298Z,21.83
2022-08-17T23:53:06.326Z,20.55
2022-08-17T23:55:33.985Z,21.23
2022-08-17T23:58:03.329Z,20.85
